createdAt,value
2017-12-29T00:01:02.870Z,5.23
2017-12-29T00:03:30.982Z,4.77
2017-12-29T00:05:59.110Z,5.90
2017-12-29T00:08:27.983Z,4.80
2017-12-29T00:10:56.818Z,5.13
2017-12-29T00:13:24.945Z,5.80
2017-12-29T00:15:53.076Z,4.80
2017-12-29T00:18:21.215Z,4.80
2017-12-29T00:20:49.313Z,4.40
2017-12-29T00:23:17.509Z,5.53
2017-12-29T00:25:45.647Z,4.20
2017-12-29T00:28:13.735Z,5.20
2017-12-29T00:30:41.915Z,4.70
2017-12-29T00:33:10.019Z,4.83
2017-12-29T00:35:38.138Z,4.80
2017-12-29T00:38:06.240Z,4.70
2017-12-29T00:40:35.508Z,4.90
2017-12-29T00:43:03.688Z,4.07
2017-12-29T00:45:31.987Z,4.20
2017-12-29T00:48:00.290Z,4.67
2017-12-29T00:50:28.456Z,5.20
2017-12-29T00:52:56.672Z,6.40
2017-12-29T00:55:24.809Z,6.07
2017-12-29T00:57:52.935Z,4.60
2017-12-29T01:00:22.055Z,5.57
2017-12-29T01:02:51.367Z,6.13
2017-12-29T01:05:19.645Z,7.43
2017-12-29T01:07:47.915Z,4.80
2017-12-29T01:10:21.143Z,7.50
2017-12-29T01:12:50.412Z,5.27
2017-12-29T01:15:18.632Z,4.30
2017-12-29T01:17:47.505Z,4.80
2017-12-29T01:20:15.786Z,4.43
2017-12-29T01:22:44.098Z,4.90
2017-12-29T01:25:12.761Z,4.07
2017-12-29T01:27:41.842Z,4.60
2017-12-29T01:30:15.731Z,5.10
2017-12-29T01:32:43.822Z,4.60
2017-12-29T01:35:12.002Z,5.57
2017-12-29T01:37:40.309Z,4.13
2017-12-29T01:40:08.549Z,4.60
2017-12-29T01:42:37.488Z,4.70
2017-12-29T01:45:05.864Z,3.83
2017-12-29T01:47:51.840Z,4.03
2017-12-29T01:50:19.943Z,5.20
2017-12-29T01:52:48.726Z,4.20
2017-12-29T01:55:37.680Z,4.90
2017-12-29T01:58:05.787Z,4.07
2017-12-29T02:00:33.896Z,4.23
2017-12-29T02:03:02.778Z,4.90
2017-12-29T02:05:31.706Z,3.60
2017-12-29T02:07:59.867Z,4.33
2017-12-29T02:10:27.930Z,4.00
2017-12-29T02:12:56.292Z,4.47
2017-12-29T02:15:24.553Z,6.03
2017-12-29T02:17:52.680Z,4.40
2017-12-29T02:20:20.971Z,4.43
2017-12-29T02:22:49.039Z,5.63
2017-12-29T02:25:17.511Z,4.83
2017-12-29T02:27:45.646Z,4.60
2017-12-29T02:33:04.904Z,4.40
2017-12-29T02:35:33.158Z,4.40
2017-12-29T02:38:01.222Z,3.37
2017-12-29T02:44:34.111Z,4.47
2017-12-29T02:47:02.179Z,4.40
2017-12-29T02:49:30.403Z,4.83
2017-12-29T02:51:58.480Z,3.70
2017-12-29T02:54:26.655Z,3.80
2017-12-29T02:56:54.742Z,4.03
2017-12-29T02:59:22.899Z,3.50
2017-12-29T03:01:51.169Z,4.10
2017-12-29T03:04:19.358Z,4.70
2017-12-29T03:06:48.992Z,4.20
2017-12-29T03:09:17.769Z,3.80
2017-12-29T03:15:02.470Z,4.13
2017-12-29T03:17:31.357Z,4.50
2017-12-29T03:19:59.873Z,5.90
2017-12-29T03:22:27.963Z,4.63
2017-12-29T03:24:56.180Z,4.97
2017-12-29T03:27:24.326Z,4.83
2017-12-29T03:29:54.543Z,6.00
2017-12-29T03:32:22.611Z,4.70
2017-12-29T03:34:50.803Z,4.20
2017-12-29T03:37:18.867Z,4.37
2017-12-29T03:39:47.075Z,3.83
2017-12-29T03:42:15.491Z,5.00
2017-12-29T03:44:43.563Z,4.17
2017-12-29T03:47:12.007Z,4.27
2017-12-29T03:49:41.403Z,4.03
2017-12-29T03:55:01.635Z,4.27
2017-12-29T04:07:15.180Z,4.27
2017-12-29T04:09:43.347Z,4.67
2017-12-29T04:12:11.486Z,4.17
2017-12-29T04:14:39.606Z,5.10
2017-12-29T04:17:07.765Z,4.70
2017-12-29T04:19:36.066Z,5.50
2017-12-29T04:22:05.258Z,5.00
2017-12-29T04:24:33.393Z,4.80
2017-12-29T04:27:01.471Z,5.57
2017-12-29T04:29:29.651Z,4.70
2017-12-29T04:31:57.730Z,4.60
2017-12-29T04:34:26.031Z,4.50
2017-12-29T04:36:54.162Z,4.90
2017-12-29T04:39:22.232Z,5.10
2017-12-29T04:41:50.371Z,4.00
2017-12-29T04:44:18.511Z,5.20
2017-12-29T04:46:46.754Z,5.20
2017-12-29T04:49:15.478Z,5.20
2017-12-29T04:51:45.431Z,6.07
2017-12-29T04:54:15.254Z,5.27
2017-12-29T04:56:43.415Z,6.00
2017-12-29T04:59:13.216Z,5.17
2017-12-29T05:01:41.394Z,4.97
2017-12-29T05:04:13.043Z,6.50
2017-12-29T05:06:41.228Z,5.30
2017-12-29T05:09:09.424Z,4.93
2017-12-29T05:11:37.532Z,5.03
2017-12-29T05:14:05.707Z,5.57
2017-12-29T05:16:33.833Z,4.43
2017-12-29T05:19:02.082Z,4.40
2017-12-29T05:21:30.634Z,4.60
2017-12-29T05:23:58.722Z,4.23
2017-12-29T05:26:27.819Z,4.43
2017-12-29T05:28:55.932Z,4.77
2017-12-29T05:31:24.990Z,4.50
2017-12-29T05:33:53.067Z,4.50
2017-12-29T05:36:21.255Z,3.87
2017-12-29T05:38:51.958Z,3.83
2017-12-29T05:41:20.206Z,4.03
2017-12-29T05:43:48.427Z,4.03
2017-12-29T05:46:16.520Z,4.50
2017-12-29T05:48:44.694Z,4.10
2017-12-29T05:51:13.544Z,5.20
2017-12-29T05:53:41.719Z,4.33
2017-12-29T05:56:10.198Z,4.60
2017-12-29T05:58:39.352Z,5.40
2017-12-29T06:01:07.478Z,5.87
2017-12-29T06:03:36.158Z,5.30
2017-12-29T06:06:05.386Z,5.60
2017-12-29T06:08:33.458Z,5.57
2017-12-29T06:11:01.758Z,5.90
2017-12-29T06:13:29.854Z,4.87
2017-12-29T06:15:58.016Z,4.70
2017-12-29T06:18:26.096Z,4.13
2017-12-29T06:20:54.651Z,4.97
2017-12-29T06:26:39.379Z,4.70
2017-12-29T06:29:07.584Z,4.23
2017-12-29T06:31:36.075Z,5.07
2017-12-29T06:34:04.189Z,4.63
2017-12-29T06:36:32.271Z,5.00
2017-12-29T06:39:00.387Z,5.53
2017-12-29T06:41:28.459Z,5.23
2017-12-29T06:43:56.724Z,4.80
2017-12-29T06:46:24.854Z,6.17
2017-12-29T06:48:53.042Z,5.40
2017-12-29T06:51:21.563Z,4.83
2017-12-29T06:53:50.700Z,5.60
2017-12-29T06:56:18.946Z,5.40
2017-12-29T07:02:51.771Z,5.27
2017-12-29T07:05:20.840Z,5.73
2017-12-29T07:07:49.000Z,5.83
2017-12-29T07:10:17.078Z,6.90
2017-12-29T07:12:45.615Z,6.00
2017-12-29T07:15:13.728Z,5.23
2017-12-29T07:17:41.810Z,5.97
2017-12-29T07:20:09.972Z,5.67
2017-12-29T07:25:29.175Z,5.90
2017-12-29T07:27:57.295Z,6.10
2017-12-29T07:30:25.376Z,5.90
2017-12-29T07:32:53.523Z,6.67
2017-12-29T07:35:21.643Z,5.80
2017-12-29T07:37:49.759Z,5.43
2017-12-29T07:40:18.615Z,17.33
2017-12-29T07:42:46.753Z,17.50
2017-12-29T07:45:18.143Z,6.87
2017-12-29T07:47:46.198Z,5.73
2017-12-29T07:50:17.201Z,6.87
2017-12-29T07:52:45.381Z,6.27
2017-12-29T07:55:16.438Z,5.70
2017-12-29T07:57:44.539Z,6.00
2017-12-29T08:00:12.974Z,6.00
2017-12-29T08:02:41.154Z,5.43
2017-12-29T08:05:09.267Z,6.57
2017-12-29T08:07:37.429Z,5.20
2017-12-29T08:10:06.147Z,6.33
2017-12-29T08:12:35.395Z,5.53
2017-12-29T08:15:03.478Z,5.30
2017-12-29T08:17:31.563Z,5.30
2017-12-29T08:19:59.776Z,5.90
2017-12-29T08:22:28.898Z,7.07
2017-12-29T08:24:57.052Z,22.83
2017-12-29T08:27:25.224Z,16.80
2017-12-29T08:29:54.423Z,10.67
2017-12-29T08:32:23.323Z,6.40
2017-12-29T08:34:55.182Z,7.23
2017-12-29T08:42:41.487Z,6.43
2017-12-29T08:45:09.755Z,6.20
2017-12-29T08:47:37.899Z,6.50
2017-12-29T08:50:12.039Z,7.00
2017-12-29T08:52:40.306Z,19.10
2017-12-29T08:55:08.533Z,7.00
2017-12-29T08:57:36.723Z,7.13
2017-12-29T09:00:04.859Z,7.87
2017-12-29T09:02:37.172Z,8.23
2017-12-29T09:05:05.471Z,7.63
2017-12-29T09:07:33.699Z,7.87
2017-12-29T09:10:02.049Z,8.53
2017-12-29T09:12:30.252Z,7.60
2017-12-29T09:14:59.111Z,8.20
2017-12-29T09:17:27.643Z,7.10
2017-12-29T09:19:55.714Z,8.33
2017-12-29T09:22:23.838Z,7.97
2017-12-29T09:24:52.093Z,8.90
2017-12-29T09:27:20.163Z,7.73
2017-12-29T09:29:48.364Z,7.83
2017-12-29T09:32:16.511Z,8.07
2017-12-29T09:34:45.782Z,7.87
2017-12-29T09:37:13.984Z,8.10
2017-12-29T09:39:42.999Z,7.63
2017-12-29T09:42:11.133Z,7.10
2017-12-29T09:44:39.981Z,7.00
2017-12-29T09:47:08.054Z,7.60
2017-12-29T09:49:36.907Z,7.17
2017-12-29T09:52:05.252Z,6.60
2017-12-29T09:54:33.427Z,7.93
2017-12-29T09:57:02.217Z,7.67
2017-12-29T09:59:30.293Z,7.30
2017-12-29T10:01:59.174Z,8.00
2017-12-29T10:04:29.369Z,7.93
2017-12-29T10:06:58.274Z,8.10
2017-12-29T10:09:28.394Z,6.90
2017-12-29T10:11:57.309Z,6.20
2017-12-29T10:14:25.387Z,7.13
2017-12-29T10:16:53.726Z,7.30
2017-12-29T10:19:22.718Z,6.93
2017-12-29T10:21:50.819Z,6.23
2017-12-29T10:24:19.595Z,6.50
2017-12-29T10:26:47.680Z,6.53
2017-12-29T10:29:16.011Z,7.50
2017-12-29T10:34:23.183Z,6.23
2017-12-29T10:36:51.308Z,6.40
2017-12-29T10:39:20.427Z,6.73
2017-12-29T10:41:48.535Z,6.83
2017-12-29T10:44:16.627Z,6.63
2017-12-29T10:46:44.763Z,6.63
2017-12-29T10:49:12.923Z,6.60
2017-12-29T10:51:42.472Z,6.97
2017-12-29T10:54:10.547Z,6.43
2017-12-29T10:56:38.930Z,6.50
2017-12-29T10:59:07.037Z,6.37
2017-12-29T11:01:35.267Z,6.10
2017-12-29T11:04:03.486Z,6.40
2017-12-29T11:06:31.593Z,6.20
2017-12-29T11:09:00.762Z,6.60
2017-12-29T11:11:29.867Z,6.80
2017-12-29T11:13:58.362Z,6.10
2017-12-29T11:16:28.543Z,5.47
2017-12-29T11:18:57.582Z,5.60
2017-12-29T11:21:25.867Z,5.07
2017-12-29T11:23:53.951Z,5.40
2017-12-29T11:26:22.078Z,5.57
2017-12-29T11:28:50.156Z,6.00
2017-12-29T11:31:18.296Z,5.80
2017-12-29T11:33:48.195Z,5.27
2017-12-29T11:36:16.375Z,5.47
2017-12-29T11:38:44.467Z,5.03
2017-12-29T11:43:51.639Z,4.23
2017-12-29T11:46:19.857Z,4.50
2017-12-29T11:48:47.972Z,4.60
2017-12-29T11:51:16.121Z,4.57
2017-12-29T11:53:44.310Z,4.30
2017-12-29T11:56:12.428Z,4.03
2017-12-29T11:58:41.295Z,5.43
2017-12-29T12:01:09.398Z,5.33
2017-12-29T12:03:38.267Z,5.57
2017-12-29T12:06:06.335Z,5.20
2017-12-29T12:08:34.556Z,4.17
2017-12-29T12:11:02.732Z,4.40
2017-12-29T12:13:30.979Z,4.50
2017-12-29T12:15:59.866Z,4.97
2017-12-29T12:21:20.192Z,3.90
2017-12-29T12:23:49.428Z,4.30
2017-12-29T12:26:17.602Z,4.47
2017-12-29T12:28:45.674Z,4.00
2017-12-29T12:31:14.075Z,4.47
2017-12-29T12:33:42.158Z,3.80
2017-12-29T12:36:13.373Z,3.77
2017-12-29T12:38:41.487Z,4.07
2017-12-29T12:41:09.559Z,3.63
2017-12-29T12:43:37.713Z,3.60
2017-12-29T12:50:09.514Z,3.87
2017-12-29T12:52:37.586Z,3.40
2017-12-29T12:55:05.754Z,4.00
2017-12-29T12:57:34.812Z,3.67
2017-12-29T13:00:08.114Z,3.60
2017-12-29T13:02:37.267Z,3.40
2017-12-29T13:05:05.471Z,2.70
2017-12-29T13:07:33.594Z,3.63
2017-12-29T13:10:01.762Z,3.80
2017-12-29T13:12:29.823Z,3.07
2017-12-29T13:17:39.134Z,3.53
2017-12-29T13:20:07.274Z,3.57
2017-12-29T13:22:35.344Z,3.07
2017-12-29T13:25:03.436Z,2.87
2017-12-29T13:27:32.445Z,3.10
2017-12-29T13:30:00.889Z,3.60
2017-12-29T13:35:20.908Z,3.50
2017-12-29T13:37:49.826Z,3.40
2017-12-29T13:40:17.918Z,3.13
2017-12-29T13:42:46.074Z,2.90
2017-12-29T13:45:14.207Z,3.40
2017-12-29T13:47:42.375Z,3.07
2017-12-29T13:50:11.490Z,2.90
2017-12-29T13:52:40.376Z,4.07
2017-12-29T13:55:10.748Z,4.23
2017-12-29T13:57:38.830Z,3.77
2017-12-29T14:00:06.912Z,3.10
2017-12-29T14:02:35.117Z,4.20
2017-12-29T14:05:04.923Z,3.33
2017-12-29T14:07:37.212Z,3.40
2017-12-29T14:10:05.692Z,3.43
2017-12-29T14:12:33.877Z,3.87
2017-12-29T14:15:02.120Z,3.93
2017-12-29T14:17:30.278Z,3.27
2017-12-29T14:20:03.287Z,4.50
2017-12-29T14:22:32.157Z,3.80
2017-12-29T14:25:00.327Z,3.10
2017-12-29T14:27:28.419Z,3.33
2017-12-29T14:29:56.992Z,4.10
2017-12-29T14:32:25.071Z,4.10
2017-12-29T14:34:53.251Z,3.97
2017-12-29T14:37:21.366Z,3.40
2017-12-29T14:39:51.329Z,4.90
2017-12-29T14:42:19.914Z,3.60
2017-12-29T14:44:49.671Z,3.83
2017-12-29T14:47:19.438Z,4.37
2017-12-29T14:49:49.322Z,3.77
2017-12-29T14:52:18.372Z,3.97
2017-12-29T14:54:47.452Z,4.60
2017-12-29T14:57:15.702Z,4.80
2017-12-29T15:06:31.763Z,5.20
2017-12-29T15:11:35.842Z,6.27
2017-12-29T15:14:04.082Z,7.53
2017-12-29T15:16:34.069Z,5.60
2017-12-29T15:19:02.158Z,6.40
2017-12-29T15:24:45.568Z,6.03
2017-12-29T15:27:13.696Z,7.20
2017-12-29T15:29:42.580Z,5.60
2017-12-29T15:32:12.111Z,13.13
2017-12-29T15:34:41.519Z,8.67
2017-12-29T15:37:09.617Z,6.70
2017-12-29T15:42:12.443Z,6.50
2017-12-29T15:47:24.227Z,7.00
2017-12-29T15:49:54.221Z,7.10
2017-12-29T15:52:22.314Z,7.00
2017-12-29T15:54:52.960Z,6.70
2017-12-29T15:57:21.081Z,6.17
2017-12-29T16:02:27.997Z,6.50
2017-12-29T16:04:57.047Z,6.70
2017-12-29T16:07:25.241Z,6.67
2017-12-29T16:09:53.312Z,6.90
2017-12-29T16:12:22.289Z,6.50
2017-12-29T16:14:51.166Z,7.70
2017-12-29T16:17:19.385Z,10.90
2017-12-29T16:19:47.411Z,7.03
2017-12-29T16:22:18.686Z,7.10
2017-12-29T16:24:47.017Z,7.07
2017-12-29T16:27:15.189Z,6.20
2017-12-29T16:29:43.295Z,5.97
2017-12-29T16:32:11.413Z,7.03
2017-12-29T16:34:39.511Z,6.77
2017-12-29T16:37:07.763Z,5.63
2017-12-29T16:39:35.948Z,6.77
2017-12-29T16:42:04.048Z,5.30
2017-12-29T16:44:38.912Z,6.53
2017-12-29T16:47:07.832Z,5.57
2017-12-29T16:49:36.772Z,6.83
2017-12-29T16:52:04.908Z,5.40
2017-12-29T16:54:33.007Z,5.93
2017-12-29T16:57:01.144Z,8.40
2017-12-29T16:59:29.267Z,6.17
2017-12-29T17:01:57.358Z,5.03
2017-12-29T17:04:25.542Z,4.93
2017-12-29T17:06:53.659Z,4.90
2017-12-29T17:09:21.958Z,5.87
2017-12-29T17:11:50.040Z,5.33
2017-12-29T17:14:18.956Z,19.40
2017-12-29T17:16:47.034Z,5.50
2017-12-29T17:19:15.410Z,4.60
2017-12-29T17:21:43.478Z,5.10
2017-12-29T17:24:11.647Z,5.20
2017-12-29T17:26:40.500Z,4.50
2017-12-29T17:29:08.876Z,5.37
2017-12-29T17:31:37.078Z,22.77
2017-12-29T17:34:05.171Z,6.20
2017-12-29T17:36:33.417Z,5.10
2017-12-29T17:39:01.493Z,6.40
2017-12-29T17:41:30.499Z,6.60
2017-12-29T17:43:59.497Z,5.00
2017-12-29T17:46:27.568Z,4.17
2017-12-29T17:48:55.944Z,4.50
2017-12-29T17:51:24.824Z,4.80
2017-12-29T17:53:53.715Z,4.77
2017-12-29T17:56:22.560Z,4.10
2017-12-29T17:58:50.666Z,4.80
2017-12-29T18:01:18.836Z,4.30
2017-12-29T18:03:47.903Z,4.23
2017-12-29T18:06:16.026Z,4.40
2017-12-29T18:08:44.180Z,11.80
2017-12-29T18:11:12.354Z,5.30
2017-12-29T18:13:40.536Z,4.10
2017-12-29T18:16:08.678Z,5.20
2017-12-29T18:18:36.813Z,4.80
2017-12-29T18:21:04.937Z,4.27
2017-12-29T18:23:33.123Z,4.27
2017-12-29T18:26:01.392Z,4.00
2017-12-29T18:28:29.472Z,4.63
2017-12-29T18:30:57.858Z,4.13
2017-12-29T18:36:17.179Z,5.40
2017-12-29T18:38:45.342Z,5.50
2017-12-29T18:41:13.431Z,5.80
2017-12-29T18:43:41.547Z,5.70
2017-12-29T18:46:09.722Z,5.60
2017-12-29T18:48:37.850Z,5.23
2017-12-29T18:51:05.962Z,5.13
2017-12-29T18:53:34.132Z,5.00
2017-12-29T18:56:02.269Z,5.10
2017-12-29T18:58:30.355Z,5.30
2017-12-29T19:00:58.497Z,5.70
2017-12-29T19:03:26.595Z,5.00
2017-12-29T19:05:54.753Z,4.77
2017-12-29T19:08:23.546Z,7.17
2017-12-29T19:10:51.716Z,14.50
2017-12-29T19:13:19.799Z,14.83
2017-12-29T19:15:47.991Z,10.43
2017-12-29T19:18:16.140Z,6.23
2017-12-29T19:20:44.222Z,13.33
2017-12-29T19:23:12.373Z,6.93
2017-12-29T19:25:40.614Z,5.63
2017-12-29T19:28:08.855Z,5.10
2017-12-29T19:30:40.287Z,5.20
2017-12-29T19:33:11.770Z,5.80
2017-12-29T19:35:40.040Z,6.10
2017-12-29T19:38:08.292Z,7.00
2017-12-29T19:40:37.474Z,6.20
2017-12-29T19:43:05.611Z,6.03
2017-12-29T19:45:33.710Z,7.00
2017-12-29T19:48:02.792Z,6.73
2017-12-29T19:50:31.031Z,6.73
2017-12-29T19:53:10.502Z,6.70
2017-12-29T19:55:38.574Z,9.47
2017-12-29T19:58:06.884Z,11.80
2017-12-29T20:00:35.013Z,7.80
2017-12-29T20:03:03.161Z,6.77
2017-12-29T20:05:31.375Z,8.20
2017-12-29T20:08:00.337Z,7.50
2017-12-29T20:13:07.621Z,8.20
2017-12-29T20:15:36.038Z,8.27
2017-12-29T20:18:06.215Z,9.40
2017-12-29T20:20:36.592Z,8.80
2017-12-29T20:23:05.872Z,8.57
2017-12-29T20:25:36.209Z,7.93
2017-12-29T20:28:16.017Z,7.27
2017-12-29T20:30:51.853Z,8.47
2017-12-29T20:33:20.082Z,8.83
2017-12-29T20:35:48.239Z,7.80
2017-12-29T20:38:16.775Z,7.70
2017-12-29T20:40:45.291Z,9.67
2017-12-29T20:43:13.483Z,8.53
2017-12-29T20:45:41.677Z,9.03
2017-12-29T20:48:09.924Z,8.50
2017-12-29T20:50:39.809Z,8.27
2017-12-29T20:53:11.598Z,9.43
2017-12-29T20:55:41.643Z,9.30
2017-12-29T20:58:09.839Z,10.40
2017-12-29T21:03:23.832Z,9.53
2017-12-29T21:05:53.110Z,9.27
2017-12-29T21:08:22.041Z,9.73
2017-12-29T21:10:50.219Z,9.40
2017-12-29T21:13:18.403Z,9.70
2017-12-29T21:15:46.771Z,10.30
2017-12-29T21:18:14.988Z,8.13
2017-12-29T21:20:44.532Z,9.00
2017-12-29T21:23:12.736Z,9.90
2017-12-29T21:25:41.829Z,9.57
2017-12-29T21:28:15.549Z,10.10
2017-12-29T21:30:59.928Z,9.47
2017-12-29T21:33:29.060Z,10.50
2017-12-29T21:35:57.227Z,9.57
2017-12-29T21:38:28.370Z,11.30
2017-12-29T21:40:56.572Z,18.37
2017-12-29T21:43:24.704Z,11.00
2017-12-29T21:45:53.783Z,9.80
2017-12-29T21:50:58.691Z,9.40
2017-12-29T21:56:06.226Z,9.13
2017-12-29T21:58:34.448Z,9.97
2017-12-29T22:01:02.672Z,9.80
2017-12-29T22:03:33.643Z,9.73
2017-12-29T22:08:56.500Z,10.77
2017-12-29T22:11:28.136Z,11.10
2017-12-29T22:13:59.400Z,11.70
2017-12-29T22:19:26.604Z,11.97
2017-12-29T22:21:54.962Z,10.70
2017-12-29T22:27:02.328Z,10.73
2017-12-29T22:29:30.481Z,12.47
2017-12-29T22:35:00.286Z,10.80
2017-12-29T22:43:35.042Z,11.57
2017-12-29T22:46:04.990Z,12.10
2017-12-29T22:51:12.665Z,12.40
2017-12-29T22:54:05.636Z,13.57
2017-12-29T22:56:34.509Z,11.57
2017-12-29T22:59:03.519Z,10.60
2017-12-29T23:01:32.672Z,10.63
2017-12-29T23:04:00.926Z,11.30
2017-12-29T23:06:47.660Z,10.30
2017-12-29T23:09:16.039Z,9.87
2017-12-29T23:16:01.011Z,9.27
